Time;durP1;ratioP1;P1;durP2;ratioP2;P2;SDS_P1;SDS_P2;PMS_P1;PMS_P2;Temp;Humidity;BMP_temperature;BMP_pressure;BME280_temperature;BME280_humidity;BME280_pressure;Samples;Min_cycle;Max_cycle;Signal;HPM_P1;HPM_P2
2022/07/27 00:02:14;;;;;;;3.47;0.98;;;;;;;13.88;73.82;101157.41;4928216;29;20126;-83
2022/07/27 00:04:41;;;;;;;4.80;0.80;;;;;;;13.86;74.23;101159.19;4914035;29;20040;-87
2022/07/27 00:07:07;;;;;;;6.05;0.90;;;;;;;13.88;73.74;101144.25;4910691;29;20142;-83
2022/07/27 00:09:34;;;;;;;3.63;1.20;;;;;;;13.90;74.52;101155.59;4925547;29;20055;-85
2022/07/27 00:12:04;;;;;;;2.58;0.95;;;;;;;13.90;74.27;101157.38;4929303;29;20040;-84
2022/07/27 00:14:31;;;;;;;2.38;1.48;;;;;;;13.90;74.92;101154.75;4923657;29;20508;-83
2022/07/27 00:16:57;;;;;;;3.15;1.02;;;;;;;13.92;74.88;101152.09;4930088;29;20051;-84
2022/07/27 00:19:24;;;;;;;4.13;1.05;;;;;;;13.89;75.17;101153.84;4942491;29;20573;-84
2022/07/27 00:21:50;;;;;;;3.22;1.13;;;;;;;13.84;75.17;101152.19;4928236;29;20491;-85
2022/07/27 00:24:17;;;;;;;3.08;0.85;;;;;;;13.78;75.86;101145.28;4924763;29;20697;-84
2022/07/27 00:26:44;;;;;;;4.45;1.15;;;;;;;13.76;76.28;101149.66;4924413;29;20048;-87
2022/07/27 00:29:10;;;;;;;9.02;1.35;;;;;;;13.72;76.18;101146.22;4909297;29;20484;-83
2022/07/27 00:31:37;;;;;;;3.65;1.05;;;;;;;13.70;76.48;101142.75;4927478;29;20046;-85
2022/07/27 00:34:04;;;;;;;3.90;1.30;;;;;;;13.68;76.47;101143.66;4925309;29;20605;-87
2022/07/27 00:36:30;;;;;;;3.20;1.02;;;;;;;13.64;77.10;101140.19;4927299;29;20405;-85
2022/07/27 00:38:57;;;;;;;3.15;1.08;;;;;;;13.60;77.07;101138.50;4930137;29;20048;-84
2022/07/27 00:41:28;;;;;;;6.07;1.63;;;;;;;13.56;77.10;101135.03;4928538;29;20036;-87
2022/07/27 00:44:00;;;;;;;6.90;1.10;;;;;;;13.55;76.76;101135.91;4925141;29;20043;-84
2022/07/27 00:46:29;;;;;;;3.42;1.15;;;;;;;13.53;77.04;101142.09;4926446;29;20043;-86
2022/07/27 00:48:55;;;;;;;3.25;0.95;;;;;;;13.51;77.41;101134.22;4912109;29;20427;-85
2022/07/27 00:51:24;;;;;;;2.22;0.75;;;;;;;13.46;77.36;101133.41;4924821;29;20059;-86
2022/07/27 00:53:54;;;;;;;2.05;0.80;;;;;;;13.43;77.27;101141.34;4928649;29;20040;-82
2022/07/27 00:56:22;;;;;;;5.35;1.33;;;;;;;13.40;77.81;101144.00;4910650;29;20048;-84
2022/07/27 00:58:52;;;;;;;4.38;1.20;;;;;;;13.36;77.83;101145.84;4910350;29;20047;-84
2022/07/27 01:01:20;;;;;;;4.75;1.48;;;;;;;13.35;78.06;101145.78;4913498;29;20097;-83
2022/07/27 01:03:47;;;;;;;2.38;1.23;;;;;;;13.30;78.30;101142.38;4940589;29;20392;-86
2022/07/27 01:06:14;;;;;;;5.03;1.10;;;;;;;13.28;78.90;101138.88;4926479;29;20051;-85
2022/07/27 01:08:47;;;;;;;3.40;1.65;;;;;;;13.23;79.02;101141.56;4910024;29;20407;-85
2022/07/27 01:11:15;;;;;;;2.85;1.10;;;;;;;13.22;79.33;101140.69;4927842;29;20048;-84
2022/07/27 01:13:43;;;;;;;6.13;1.27;;;;;;;13.21;79.49;101140.72;4911067;29;20146;-86
2022/07/27 01:16:10;;;;;;;2.65;1.10;;;;;;;13.19;79.96;101148.63;4924857;29;20048;-85
2022/07/27 01:18:39;;;;;;;2.30;0.93;;;;;;;13.17;80.03;101154.81;4912867;29;20051;-86
2022/07/27 01:21:08;;;;;;;4.20;1.00;;;;;;;13.17;80.13;101144.28;4927733;29;20047;-86
2022/07/27 01:23:36;;;;;;;2.83;1.30;;;;;;;13.14;80.53;101153.06;4942044;29;20459;-84
2022/07/27 01:26:06;;;;;;;5.40;0.90;;;;;;;13.11;80.65;101154.84;4911836;29;20058;-83
2022/07/27 01:28:33;;;;;;;2.00;0.95;;;;;;;13.09;81.03;101152.25;4913508;29;20040;-84
2022/07/27 01:30:59;;;;;;;5.40;2.40;;;;;;;13.03;80.97;101147.91;4925800;29;20036;-85
2022/07/27 01:33:26;;;;;;;4.10;2.15;;;;;;;12.98;81.33;101147.09;4925805;29;20047;-86
2022/07/27 01:35:57;;;;;;;5.05;1.27;;;;;;;12.93;82.51;101150.66;4928793;29;20048;-84
2022/07/27 01:38:25;;;;;;;3.80;1.15;;;;;;;12.90;81.76;101151.56;4907790;29;20608;-84
2022/07/27 01:40:56;;;;;;;2.85;1.48;;;;;;;12.83;82.57;101144.66;4911389;29;20499;-86
2022/07/27 01:43:24;;;;;;;4.07;1.02;;;;;;;12.73;82.58;101149.97;4924289;29;20040;-84
2022/07/27 01:45:51;;;;;;;2.83;1.77;;;;;;;12.69;83.18;101150.91;4912539;29;20043;-83
2022/07/27 01:48:17;;;;;;;7.32;0.98;;;;;;;12.64;83.45;101152.69;4925679;29;20043;-83
2022/07/27 01:50:44;;;;;;;5.47;1.00;;;;;;;12.60;84.03;101155.38;4925916;29;20032;-83
2022/07/27 01:53:11;;;;;;;1.45;0.65;;;;;;;12.54;84.17;101149.31;4904426;29;20055;-86
2022/07/27 01:55:37;;;;;;;3.55;0.95;;;;;;;12.51;84.56;101153.72;4925107;29;20044;-83
2022/07/27 01:58:06;;;;;;;1.52;0.70;;;;;;;12.45;84.61;101146.78;4926149;29;20042;-82
2022/07/27 02:00:34;;;;;;;3.88;1.20;;;;;;;12.42;85.28;101141.53;4928463;29;20043;-83
2022/07/27 02:03:01;;;;;;;10.75;1.15;;;;;;;12.40;85.27;101149.41;4909143;29;20050;-85
2022/07/27 02:05:28;;;;;;;3.03;1.17;;;;;;;12.40;84.94;101149.41;4929926;29;20042;-84
2022/07/27 02:07:54;;;;;;;3.35;0.80;;;;;;;12.41;85.18;101155.53;4928897;29;20515;-84
2022/07/27 02:10:21;;;;;;;2.53;1.10;;;;;;;12.41;85.05;101148.53;4928374;29;20047;-82
2022/07/27 02:12:47;;;;;;;5.20;1.77;;;;;;;12.40;85.00;101153.81;4930246;29;20039;-85
2022/07/27 02:15:25;;;;;;;3.45;1.38;;;;;;;12.39;85.05;101145.03;4943510;29;20040;-81
2022/07/27 02:17:53;;;;;;;1.17;1.17;;;;;;;12.38;84.74;101140.69;4942450;29;20542;-87
2022/07/27 02:20:23;;;;;;;4.05;0.98;;;;;;;12.34;84.78;101138.97;4924306;29;20044;-83
2022/07/27 02:22:51;;;;;;;1.35;1.25;;;;;;;12.32;85.10;101142.47;4930121;29;20032;-84
2022/07/27 02:25:19;;;;;;;2.38;0.60;;;;;;;12.29;85.07;101140.75;4928411;29;20542;-83
2022/07/27 02:27:47;;;;;;;5.20;1.15;;;;;;;12.26;85.02;101145.19;4920106;29;20075;-84
2022/07/27 02:30:14;;;;;;;0.80;0.60;;;;;;;12.22;85.22;101144.31;4934333;29;20052;-82
2022/07/27 02:32:42;;;;;;;3.10;1.27;;;;;;;12.19;85.63;101145.22;4918035;29;20135;-85
2022/07/27 02:35:10;;;;;;;3.35;0.70;;;;;;;12.15;85.48;101142.63;4931663;29;20083;-86
2022/07/27 02:37:37;;;;;;;1.63;0.80;;;;;;;12.14;85.70;101147.00;4918375;29;20043;-90
2022/07/27 02:40:04;;;;;;;5.63;0.90;;;;;;;12.12;85.48;101153.16;4927985;29;20048;-86
2022/07/27 02:42:31;;;;;;;5.20;1.30;;;;;;;12.14;85.81;101156.66;4914769;29;20710;-85
2022/07/27 02:44:58;;;;;;;0.65;0.63;;;;;;;12.13;85.74;101157.53;4931877;29;20038;-83
2022/07/27 02:47:24;;;;;;;1.40;0.63;;;;;;;12.16;85.51;101153.13;4930017;29;20135;-82
2022/07/27 02:49:51;;;;;;;3.67;1.08;;;;;;;12.19;85.42;101160.97;4931772;29;20044;-81
2022/07/27 02:52:18;;;;;;;3.03;0.88;;;;;;;12.20;84.83;101149.59;4930959;29;20051;-87
2022/07/27 02:54:44;;;;;;;2.55;1.70;;;;;;;12.23;84.63;101151.31;4914979;29;20417;-83
2022/07/27 02:57:11;;;;;;;4.93;0.93;;;;;;;12.20;84.70;101144.34;4913866;29;20047;-83
2022/07/27 02:59:38;;;;;;;2.30;1.25;;;;;;;12.20;85.50;101151.31;4932925;29;20048;-84
2022/07/27 03:02:04;;;;;;;2.58;1.23;;;;;;;12.19;85.15;101157.44;4929819;29;20040;-91
2022/07/27 03:04:31;;;;;;;2.08;1.20;;;;;;;12.17;85.19;101151.38;4930625;29;20035;-88
2022/07/27 03:06:58;;;;;;;0.75;0.63;;;;;;;12.16;85.75;101147.00;4932741;29;20394;-83
2022/07/27 03:09:24;;;;;;;2.65;1.10;;;;;;;12.14;85.84;101151.41;4927769;29;20059;-83
2022/07/27 03:11:51;;;;;;;3.20;0.68;;;;;;;12.14;85.71;101154.03;4916120;29;20052;-84
2022/07/27 03:14:18;;;;;;;3.33;1.13;;;;;;;12.14;85.59;101152.25;4929017;29;20050;-84
2022/07/27 03:16:45;;;;;;;4.70;1.33;;;;;;;12.15;86.21;101155.75;4932092;29;20118;-83
2022/07/27 03:19:14;;;;;;;2.28;0.88;;;;;;;12.15;85.71;101155.75;4930782;29;20055;-88
2022/07/27 03:21:47;;;;;;;4.43;1.25;;;;;;;12.13;85.88;101147.88;4934351;29;20050;-82
2022/07/27 03:24:14;;;;;;;1.45;1.00;;;;;;;12.09;85.90;101151.41;4916671;29;20044;-83
2022/07/27 03:26:45;;;;;;;3.90;0.90;;;;;;;12.09;86.12;101151.41;4934043;29;20048;-86
2022/07/27 03:29:13;;;;;;;2.72;1.15;;;;;;;12.07;86.12;101151.44;4933108;29;20158;-85
2022/07/27 03:31:39;;;;;;;3.03;0.95;;;;;;;12.06;87.01;101157.56;4934321;29;20043;-82
2022/07/27 03:34:09;;;;;;;1.70;0.85;;;;;;;12.09;86.52;101159.28;4912770;29;20043;-85
2022/07/27 03:36:39;;;;;;;5.38;1.50;;;;;;;12.08;86.32;101152.28;4927911;29;20621;-85
2022/07/27 03:39:08;;;;;;;2.22;1.60;;;;;;;12.07;86.83;101163.66;4913327;29;20044;-85
2022/07/27 03:41:37;;;;;;;2.85;2.17;;;;;;;12.04;87.07;101156.69;4929389;29;20091;-84
2022/07/27 03:44:05;;;;;;;0.85;0.55;;;;;;;12.03;87.18;101164.56;4928757;29;20122;-83
2022/07/27 03:46:33;;;;;;;1.75;0.70;;;;;;;12.01;87.01;101175.09;4932160;29;20087;-85
2022/07/27 03:48:59;;;;;;;2.97;0.80;;;;;;;11.99;87.39;101166.34;4928644;29;20046;-88
2022/07/27 03:51:26;;;;;;;3.63;0.98;;;;;;;12.00;87.67;101170.72;4928716;29;20403;-85
2022/07/27 03:53:53;;;;;;;2.33;1.10;;;;;;;11.99;87.41;101166.34;4927455;29;20051;-85
2022/07/27 03:56:20;;;;;;;9.13;1.25;;;;;;;11.99;87.94;101168.97;4929245;29;20411;-86
2022/07/27 03:58:47;;;;;;;6.93;1.25;;;;;;;12.00;88.01;101160.22;4917040;29;20054;-87
2022/07/27 04:01:13;;;;;;;6.82;1.13;;;;;;;12.03;87.83;101159.31;4946179;29;20048;-88
2022/07/27 04:03:43;;;;;;;8.35;1.52;;;;;;;12.05;87.96;101166.31;4915227;29;20052;-89
2022/07/27 04:06:10;;;;;;;6.78;1.48;;;;;;;12.07;88.15;101161.94;4932984;29;20082;-86
2022/07/27 04:08:37;;;;;;;10.38;2.45;;;;;;;12.10;88.13;101162.78;4929696;29;20376;-81
2022/07/27 04:11:04;;;;;;;4.88;2.67;;;;;;;12.13;88.31;101168.03;4931517;29;20074;-85
2022/07/27 04:13:31;;;;;;;10.48;1.92;;;;;;;12.15;87.85;101169.75;4930116;29;20485;-84
2022/07/27 04:15:57;;;;;;;13.82;2.30;;;;;;;12.16;88.30;101170.63;4913543;29;20040;-83
2022/07/27 04:18:24;;;;;;;7.13;1.98;;;;;;;12.19;88.28;101173.19;4914643;29;20529;-84
2022/07/27 04:20:54;;;;;;;2.63;1.27;;;;;;;12.23;87.38;101173.19;4924859;29;20032;-85
2022/07/27 04:23:21;;;;;;;2.72;1.63;;;;;;;12.24;87.64;101160.91;4925732;29;20042;-85
2022/07/27 04:25:48;;;;;;;5.60;1.23;;;;;;;12.25;87.65;101167.91;4931184;29;20769;-83
2022/07/27 04:28:15;;;;;;;4.70;2.15;;;;;;;12.24;87.92;101167.06;4928341;29;20039;-86
2022/07/27 04:30:42;;;;;;;3.95;2.05;;;;;;;12.31;88.02;101167.88;4932096;29;20062;-83
2022/07/27 04:33:09;;;;;;;4.45;1.50;;;;;;;12.37;87.51;101166.94;4915047;29;20102;-87
2022/07/27 04:35:35;;;;;;;3.72;1.40;;;;;;;12.38;87.54;101166.06;4916002;29;20542;-84
2022/07/27 04:38:02;;;;;;;3.72;1.00;;;;;;;12.44;87.22;101173.00;4932723;29;20058;-86
2022/07/27 04:40:41;;;;;;;3.25;1.13;;;;;;;12.43;87.21;101169.53;4912072;29;20051;-83
2022/07/27 04:43:07;;;;;;;2.22;1.38;;;;;;;12.41;86.77;101164.28;4931590;29;20071;-83
2022/07/27 04:45:34;;;;;;;2.28;1.27;;;;;;;12.40;87.28;101165.16;4925725;29;20059;-86
2022/07/27 04:48:09;;;;;;;3.35;1.15;;;;;;;12.40;87.69;101162.53;4915287;29;20055;-84
2022/07/27 04:50:47;;;;;;;3.58;1.38;;;;;;;12.45;87.55;101167.78;4920340;29;20058;-84
2022/07/27 04:53:17;;;;;;;2.63;1.35;;;;;;;12.50;87.68;101172.97;4918259;29;20059;-83
2022/07/27 04:55:46;;;;;;;5.88;2.30;;;;;;;12.55;87.60;101173.81;4929767;29;20048;-84
2022/07/27 04:58:14;;;;;;;3.25;1.10;;;;;;;12.54;87.17;101172.94;4911868;29;20063;-83
2022/07/27 05:00:42;;;;;;;4.07;1.40;;;;;;;12.56;87.66;101168.53;4915683;29;20048;-83
2022/07/27 05:03:10;;;;;;;1.90;1.40;;;;;;;12.58;87.71;101174.66;4928049;29;20067;-83
2022/07/27 05:05:38;;;;;;;9.27;1.60;;;;;;;12.54;88.30;101179.94;4932200;29;20054;-84
2022/07/27 05:08:05;;;;;;;3.13;1.33;;;;;;;12.50;88.62;101175.59;4942792;29;20054;-88
2022/07/27 05:10:36;;;;;;;3.47;1.52;;;;;;;12.50;88.97;101179.09;4912340;29;20044;-83
2022/07/27 05:13:06;;;;;;;2.95;1.88;;;;;;;12.53;89.25;101176.44;4926698;29;20089;-84
2022/07/27 05:15:33;;;;;;;3.70;2.28;;;;;;;12.62;88.72;101183.38;4928157;29;20036;-85
2022/07/27 05:18:00;;;;;;;5.35;2.60;;;;;;;12.70;88.78;101183.31;4930363;29;20047;-86
2022/07/27 05:20:28;;;;;;;5.60;2.60;;;;;;;12.73;88.49;101183.28;4930052;29;20115;-88
2022/07/27 05:22:56;;;;;;;10.57;3.17;;;;;;;12.78;88.27;101183.25;4929957;29;20506;-86
2022/07/27 05:25:24;;;;;;;6.15;2.60;;;;;;;12.78;88.26;101188.50;4916567;29;20043;-89
2022/07/27 05:27:55;;;;;;;2.08;1.83;;;;;;;12.76;88.34;101185.84;4914606;29;20052;-89
2022/07/27 05:30:24;;;;;;;4.90;2.33;;;;;;;12.77;88.41;101192.88;4948123;29;20052;-87
2022/07/27 05:32:53;;;;;;;8.20;2.25;;;;;;;12.79;88.50;101185.84;4911896;29;20059;-84
2022/07/27 05:35:23;;;;;;;6.50;3.20;;;;;;;12.82;88.55;101193.69;4907722;29;20056;-84
2022/07/27 05:37:50;;;;;;;7.68;2.90;;;;;;;12.85;88.76;101192.78;4916262;29;20552;-85
2022/07/27 05:40:26;;;;;;;6.07;2.60;;;;;;;12.93;88.46;101192.72;4918069;29;20086;-87
2022/07/27 05:42:53;;;;;;;4.60;2.00;;;;;;;12.95;88.42;101201.47;4919988;29;20047;-84
2022/07/27 05:45:23;;;;;;;2.80;1.80;;;;;;;12.95;88.87;101194.44;4919361;29;20072;-84
2022/07/27 05:47:54;;;;;;;6.28;2.10;;;;;;;12.96;88.55;101203.19;4938673;29;20399;-83
2022/07/27 05:50:21;;;;;;;4.57;1.90;;;;;;;12.98;88.80;101204.06;4917896;29;20043;-85
2022/07/27 05:52:48;;;;;;;2.85;1.90;;;;;;;13.00;88.74;101203.16;4936122;29;20062;-84
2022/07/27 05:55:14;;;;;;;5.22;2.35;;;;;;;13.04;88.32;101209.25;4931692;29;20043;-83
2022/07/27 05:57:42;;;;;;;7.40;2.10;;;;;;;13.11;88.49;101210.06;4931665;29;20040;-83
2022/07/27 06:00:12;;;;;;;2.50;1.88;;;;;;;13.19;87.62;101223.97;4929970;29;20059;-84
2022/07/27 06:02:40;;;;;;;14.25;2.58;;;;;;;13.23;87.46;101225.69;4918729;29;20069;-85
2022/07/27 06:05:08;;;;;;;4.65;2.25;;;;;;;13.35;86.90;101222.94;4936771;29;20048;-84
2022/07/27 06:10:35;;;;;;;2.10;1.58;;;;;;;13.52;85.52;101230.66;4878378;29;20101;-86
2022/07/27 06:13:06;;;;;;;2.78;1.48;;;;;;;13.60;85.02;101234.94;4865261;29;20060;-83
2022/07/27 06:15:32;;;;;;;2.47;1.33;;;;;;;13.65;84.22;101228.75;4910187;29;20036;-87
2022/07/27 06:18:05;;;;;;;2.75;1.52;;;;;;;13.71;84.19;101226.06;4940237;29;20063;-83
2022/07/27 06:20:33;;;;;;;6.00;1.67;;;;;;;13.78;83.30;101233.84;4936734;29;20046;-85
2022/07/27 06:23:02;;;;;;;4.63;1.95;;;;;;;13.81;83.07;101242.56;4936399;29;20036;-85
2022/07/27 06:25:33;;;;;;;3.45;2.22;;;;;;;13.84;82.66;101237.25;4934460;29;20048;-85
2022/07/27 06:28:04;;;;;;;5.22;1.52;;;;;;;13.90;82.00;101242.44;4938604;29;20120;-83
2022/07/27 06:30:34;;;;;;;4.90;1.95;;;;;;;13.99;82.17;101254.63;4932570;29;20084;-83
2022/07/27 06:33:04;;;;;;;3.63;1.73;;;;;;;14.06;81.84;101242.25;4919258;29;20039;-86
2022/07/27 06:35:31;;;;;;;3.80;1.20;;;;;;;14.15;79.73;101244.75;4934266;29;20040;-86
2022/07/27 06:37:59;;;;;;;3.15;1.02;;;;;;;14.20;79.39;101248.19;4933949;29;20483;-85
2022/07/27 06:40:25;;;;;;;1.90;0.77;;;;;;;14.21;78.54;101234.13;4921578;29;20071;-86
2022/07/27 06:42:57;;;;;;;2.83;1.27;;;;;;;14.26;78.96;101238.47;4920842;29;20072;-83
2022/07/27 06:45:36;;;;;;;1.98;1.45;;;;;;;14.35;78.56;101233.94;4938205;29;20546;-83
2022/07/27 06:48:07;;;;;;;6.85;1.42;;;;;;;14.45;77.27;101236.41;4925397;29;20046;-88
2022/07/27 06:50:33;;;;;;;4.30;1.38;;;;;;;14.50;75.82;101232.81;4935476;29;20072;-85
2022/07/27 06:53:03;;;;;;;1.05;0.77;;;;;;;14.56;75.04;101230.09;4916120;29;20566;-84
2022/07/27 06:55:33;;;;;;;3.53;1.13;;;;;;;14.65;73.46;101228.22;4920592;29;20054;-89
2022/07/27 06:57:59;;;;;;;2.85;1.08;;;;;;;14.70;73.03;101226.38;4929760;29;20051;-86
2022/07/27 07:00:26;;;;;;;4.95;0.82;;;;;;;14.76;72.08;101228.91;4934090;29;20048;-85
2022/07/27 07:02:59;;;;;;;4.28;0.88;;;;;;;14.83;71.07;101232.31;4929717;29;20047;-83
2022/07/27 07:05:26;;;;;;;4.03;1.10;;;;;;;14.88;68.80;101235.75;4917835;29;20051;-83
2022/07/27 07:07:54;;;;;;;0.95;0.43;;;;;;;14.92;69.44;101240.06;4919186;29;20055;-84
2022/07/27 07:10:23;;;;;;;3.20;0.95;;;;;;;15.02;67.54;101236.34;4934461;29;20066;-83
2022/07/27 07:12:55;;;;;;;5.32;1.05;;;;;;;15.12;66.58;101239.72;4932213;29;20055;-85
2022/07/27 07:15:26;;;;;;;3.90;0.70;;;;;;;15.29;66.07;101233.22;4905387;29;20103;-85
2022/07/27 07:17:53;;;;;;;2.47;0.50;;;;;;;15.49;64.89;101232.84;4937869;29;20047;-84
2022/07/27 07:20:23;;;;;;;6.32;1.00;;;;;;;15.85;63.30;101233.00;4935755;29;20048;-89
2022/07/27 07:22:51;;;;;;;1.83;0.50;;;;;;;16.25;61.23;101232.09;4947818;29;20047;-86
2022/07/27 07:25:17;;;;;;;2.33;0.60;;;;;;;16.73;60.01;101235.38;4934390;29;20055;-84
2022/07/27 07:27:44;;;;;;;4.55;1.08;;;;;;;17.28;58.49;101228.63;4933238;29;20091;-83
2022/07/27 07:30:12;;;;;;;2.65;0.63;;;;;;;17.95;56.66;101229.41;4933638;29;20537;-83
2022/07/27 07:32:39;;;;;;;3.45;0.77;;;;;;;18.53;54.70;101226.69;4932704;29;20052;-84
2022/07/27 07:35:07;;;;;;;2.05;0.70;;;;;;;18.83;53.42;101230.06;4920139;29;20155;-87
2022/07/27 07:37:33;;;;;;;4.20;0.57;;;;;;;18.88;52.81;101227.28;4929968;29;20090;-85
2022/07/27 07:40:04;;;;;;;2.33;0.80;;;;;;;19.23;52.17;101224.31;4932175;29;20047;-85
2022/07/27 07:42:31;;;;;;;3.45;0.60;;;;;;;19.83;50.77;101227.44;4931934;29;20055;-84
2022/07/27 07:45:08;;;;;;;5.18;0.50;;;;;;;20.17;49.40;101231.44;4933932;29;20046;-85
2022/07/27 07:47:35;;;;;;;4.82;1.27;;;;;;;20.14;48.80;101235.09;4927855;29;20048;-83
2022/07/27 07:50:02;;;;;;;2.55;1.05;;;;;;;20.41;46.97;101242.84;4932343;29;20059;-83
2022/07/27 07:55:35;;;;;;;3.55;0.90;;;;;;;21.64;44.23;101239.41;4925446;29;20046;-85
2022/07/27 07:58:01;;;;;;;2.53;0.98;;;;;;;21.85;44.11;101234.00;4933746;29;20044;-82
2022/07/27 08:00:32;;;;;;;2.20;0.80;;;;;;;22.12;43.03;101229.16;4928620;29;20043;-86
2022/07/27 08:02:59;;;;;;;3.90;0.45;;;;;;;21.96;43.39;101233.50;4927726;29;20040;-84
2022/07/27 08:05:27;;;;;;;2.53;0.60;;;;;;;21.05;42.55;101242.91;4931333;29;20040;-83
2022/07/27 08:07:54;;;;;;;1.85;0.50;;;;;;;20.44;44.34;101248.06;4934930;29;20051;-85
2022/07/27 08:10:22;;;;;;;2.63;0.32;;;;;;;20.81;43.59;101238.56;4932674;29;20051;-84
2022/07/27 08:12:54;;;;;;;2.75;0.60;;;;;;;20.88;42.91;101239.16;4944464;29;20099;-87
2022/07/27 08:15:29;;;;;;;3.42;0.95;;;;;;;20.52;43.54;101242.44;4941793;29;20048;-84
2022/07/27 08:17:58;;;;;;;3.55;0.65;;;;;;;20.60;43.73;101242.13;4948440;29;20458;-83
2022/07/27 08:20:27;;;;;;;5.65;1.35;;;;;;;21.55;42.12;101244.28;4926636;29;20059;-84
2022/07/27 08:22:54;;;;;;;0.98;0.68;;;;;;;22.74;39.21;101241.28;4931864;29;20051;-83
2022/07/27 08:25:24;;;;;;;2.38;0.40;;;;;;;23.73;38.00;101244.16;4932084;29;20042;-85
2022/07/27 08:27:51;;;;;;;2.10;0.57;;;;;;;24.73;36.03;101241.19;4917263;29;20044;-84
2022/07/27 08:30:18;;;;;;;1.27;0.20;;;;;;;25.39;32.93;101240.81;4917246;29;20056;-84
2022/07/27 08:32:58;;;;;;;3.10;0.47;;;;;;;25.22;32.87;101244.53;4927359;29;20103;-86
2022/07/27 08:35:26;;;;;;;2.10;0.60;;;;;;;24.22;34.16;101244.09;4916201;29;20107;-85
2022/07/27 08:37:59;;;;;;;1.90;0.50;;;;;;;23.49;34.90;101239.16;4931704;29;20079;-85
2022/07/27 08:40:28;;;;;;;1.20;0.35;;;;;;;23.85;33.65;101239.94;4931587;29;20039;-83
2022/07/27 08:43:00;;;;;;;2.15;0.60;;;;;;;24.26;33.68;101239.41;4931577;29;20043;-84
2022/07/27 08:45:31;;;;;;;1.80;0.60;;;;;;;24.96;33.14;101240.75;4927222;29;20038;-83
2022/07/27 08:48:01;;;;;;;2.08;0.40;;;;;;;25.98;31.87;101229.06;4917491;29;20043;-83
2022/07/27 08:50:33;;;;;;;1.02;0.40;;;;;;;26.75;30.75;101226.69;4931812;29;20071;-83
2022/07/27 08:53:10;;;;;;;4.65;0.77;;;;;;;27.20;29.35;101229.84;4928168;29;20048;-83
2022/07/27 08:55:43;;;;;;;1.90;0.98;;;;;;;26.91;29.49;101230.06;4928013;29;20052;-86
2022/07/27 08:58:18;;;;;;;4.70;0.80;;;;;;;25.65;31.02;101239.19;4929612;29;20415;-83
2022/07/27 09:00:48;;;;;;;2.75;0.65;;;;;;;25.06;32.11;101236.56;4930539;29;20043;-88
2022/07/27 09:03:18;;;;;;;1.85;0.60;;;;;;;25.16;31.51;101236.84;4928133;29;20058;-86
2022/07/27 09:05:50;;;;;;;0.30;0.30;;;;;;;25.69;30.71;101231.81;4930920;29;20043;-84
2022/07/27 09:08:27;;;;;;;1.15;0.60;;;;;;;26.14;29.29;101223.59;4942709;29;20450;-84
2022/07/27 09:10:58;;;;;;;2.38;0.57;;;;;;;26.73;29.12;101224.13;4928093;29;20139;-85
2022/07/27 09:13:33;;;;;;;1.65;0.30;;;;;;;26.24;29.29;101222.91;4914435;29;21550;-84
2022/07/27 09:16:07;;;;;;;0.80;0.60;;;;;;;25.58;30.19;101233.34;4916697;29;20055;-85
2022/07/27 09:18:36;;;;;;;1.05;0.40;;;;;;;25.20;30.94;101227.66;4930161;29;20068;-85
2022/07/27 09:21:23;;;;;;;1.27;0.40;;;;;;;26.54;28.80;101229.00;4912649;29;20395;-84
2022/07/27 09:24:08;;;;;;;0.43;0.20;;;;;;;26.42;28.66;101222.63;4912352;29;20087;-84
2022/07/27 09:26:39;;;;;;;2.92;0.80;;;;;;;25.57;30.09;101236.13;4930804;29;20047;-83
2022/07/27 09:29:08;;;;;;;3.35;0.45;;;;;;;25.23;30.71;101232.84;4946342;29;20139;-90
2022/07/27 09:31:51;;;;;;;7.43;0.95;;;;;;;26.45;29.14;101224.25;4935434;29;20130;-84
2022/07/27 09:34:34;;;;;;;2.70;0.60;;;;;;;27.97;27.28;101225.34;4913825;29;20044;-85
2022/07/27 09:37:02;;;;;;;4.32;0.93;;;;;;;28.79;26.52;101228.19;4952548;29;20039;-84
2022/07/27 09:39:29;;;;;;;2.38;0.70;;;;;;;27.76;27.68;101223.25;4926963;29;20051;-88
2022/07/27 09:42:01;;;;;;;2.53;0.20;;;;;;;26.92;28.50;101222.84;4932545;29;20561;-86
2022/07/27 09:44:42;;;;;;;0.98;0.77;;;;;;;28.02;27.61;101215.13;4868087;29;20087;-90
2022/07/27 09:47:29;;;;;;;1.88;0.52;;;;;;;28.83;25.49;101205.44;4895523;29;20049;-83
2022/07/27 09:50:22;;;;;;;0.82;0.40;;;;;;;27.44;26.78;101212.13;4896377;29;20040;-84
2022/07/27 09:52:49;;;;;;;3.00;0.40;;;;;;;26.51;28.05;101219.31;4909220;29;20056;-84
2022/07/27 09:55:20;;;;;;;3.53;0.52;;;;;;;26.50;28.18;101222.09;4881033;29;20433;-84
2022/07/27 09:57:58;;;;;;;1.63;0.68;;;;;;;27.90;26.27;101222.25;4882031;29;20076;-86
2022/07/27 10:00:30;;;;;;;1.33;0.65;;;;;;;29.21;25.60;101217.72;4898159;29;20100;-85
2022/07/27 10:02:57;;;;;;;1.77;0.55;;;;;;;30.79;23.70;101215.66;4884219;29;20064;-86
2022/07/27 10:05:23;;;;;;;1.10;0.30;;;;;;;30.77;23.72;101214.97;4914520;29;20060;-90
2022/07/27 10:07:54;;;;;;;2.05;0.60;;;;;;;29.19;24.56;101230.47;4904312;29;20048;-89
2022/07/27 10:10:22;;;;;;;0.40;0.40;;;;;;;27.40;27.04;101222.22;4903326;29;20048;-85
2022/07/27 10:12:51;;;;;;;2.40;0.88;;;;;;;27.20;27.11;101213.72;4887535;29;22260;-85
2022/07/27 10:15:20;;;;;;;2.35;0.60;;;;;;;28.84;25.18;101209.00;4881204;29;20040;-85
2022/07/27 10:17:57;;;;;;;1.20;0.80;;;;;;;30.17;24.14;101209.22;4893523;29;20072;-85
2022/07/27 10:20:26;;;;;;;1.42;0.55;;;;;;;29.23;24.91;101219.44;4896876;29;20056;-84
2022/07/27 10:23:00;;;;;;;2.13;0.60;;;;;;;27.72;26.64;101211.00;4898770;29;20097;-85
2022/07/27 10:25:30;;;;;;;0.98;0.80;;;;;;;26.36;28.44;101214.97;4895737;29;20472;-83
2022/07/27 10:28:16;;;;;;;2.97;0.63;;;;;;;26.54;28.16;101218.25;4896904;29;20071;-83
2022/07/27 10:30:43;;;;;;;0.95;0.40;;;;;;;28.56;26.33;101211.06;4895236;29;20135;-82
2022/07/27 10:33:16;;;;;;;2.28;0.57;;;;;;;30.23;23.72;101202.44;4881462;29;20045;-83
2022/07/27 10:35:44;;;;;;;2.75;0.50;;;;;;;31.96;22.22;101203.66;4910666;29;20036;-84
2022/07/27 10:38:17;;;;;;;2.03;0.60;;;;;;;33.28;20.86;101205.84;4911906;29;20052;-84
2022/07/27 10:40:44;;;;;;;1.83;0.43;;;;;;;33.91;20.37;101206.94;4901847;29;20100;-85
2022/07/27 10:43:21;;;;;;;1.38;0.50;;;;;;;32.19;21.96;101211.56;4881163;29;20726;-88
2022/07/27 10:45:51;;;;;;;2.58;0.32;;;;;;;30.51;23.61;101206.38;4894026;29;20049;-84
2022/07/27 10:48:41;;;;;;;0.98;0.40;;;;;;;29.04;24.60;101220.91;4897365;29;20059;-91
2022/07/27 10:51:11;;;;;;;1.60;0.50;;;;;;;28.10;26.27;101214.56;4886280;29;20044;-87
2022/07/27 10:53:41;;;;;;;1.63;0.60;;;;;;;28.80;25.25;101223.66;4897267;29;20041;-85
2022/07/27 10:56:12;;;;;;;2.20;0.60;;;;;;;30.60;23.49;101218.22;4893245;29;20060;-84
2022/07/27 10:58:38;;;;;;;1.95;0.30;;;;;;;30.82;23.07;101210.00;4902883;29;20068;-84
2022/07/27 11:01:06;;;;;;;3.35;0.47;;;;;;;29.80;24.17;101225.69;4907933;29;20047;-86
2022/07/27 11:03:36;;;;;;;1.23;0.43;;;;;;;28.38;25.32;101222.28;4906652;29;20045;-84
2022/07/27 11:06:29;;;;;;;1.08;0.55;;;;;;;27.14;27.13;101232.97;4908124;29;20089;-84
2022/07/27 11:08:58;;;;;;;2.70;0.50;;;;;;;26.47;28.04;101222.34;4909591;29;20054;-84
2022/07/27 11:11:33;;;;;;;0.55;0.50;;;;;;;26.45;27.59;101229.63;4887282;29;20079;-85
2022/07/27 11:14:00;;;;;;;0.98;0.45;;;;;;;26.35;28.01;101237.44;4898433;29;20187;-84
2022/07/27 11:16:30;;;;;;;2.55;1.30;;;;;;;26.20;28.01;101233.94;4899827;29;20128;-89
2022/07/27 11:19:03;;;;;;;;;;;;;;;26.81;27.82;101236.19;4914496;29;20053;-84
2022/07/27 11:21:35;;;;;;;0.50;0.22;;;;;;;29.40;25.15;101219.00;4914839;29;19927;-83
2022/07/27 11:24:17;;;;;;;6.13;1.13;;;;;;;30.58;23.08;101226.47;4897837;29;20504;-91
2022/07/27 11:26:45;;;;;;;1.70;0.40;;;;;;;29.09;24.83;101224.09;4878316;29;20036;-83
2022/07/27 11:29:14;;;;;;;2.05;0.70;;;;;;;27.94;26.22;101228.25;4910370;29;20060;-83
2022/07/27 11:31:44;;;;;;;1.55;0.43;;;;;;;26.96;27.30;101231.56;4895851;29;20051;-87
2022/07/27 11:34:16;;;;;;;0.77;0.50;;;;;;;26.29;28.11;101219.91;4900001;29;20056;-83
2022/07/27 11:36:49;;;;;;;2.33;0.40;;;;;;;25.99;28.40;101231.66;4893521;29;20123;-85
2022/07/27 11:39:24;;;;;;;;;;;;;;;26.09;28.33;101232.81;4894772;29;20048;-84
2022/07/27 11:41:56;;;;;;;1.38;0.50;;;;;;;26.64;27.27;101223.88;4896085;29;20029;-83
2022/07/27 11:44:23;;;;;;;1.20;0.47;;;;;;;28.63;25.44;101212.34;4895147;29;20069;-89